الصفحة الرئيسية
METAR-TAF:

METAR-TAF

مطار :

Rarotonga, جزر كوك

دائرة عرض: 21-12S, خط طول: 159-49W, ارتفاع: 7 متر

مراقبة الطقس الحالي

تاريخ ووقت الإصدار 1ساعة و 4 دقيقة قبل الساعة 14:00UTC
ريح 3 عقدة من الشرق
درجة الحرارة 21°درجة مئوية
الرطوبة 83%
ضغط 1016 hPa
الرؤية 10 كم أو أكثر
غيوم متفرقة على ارتفاع 1800 قدم
غيوم مفككة على ارتفاع 4500 قدم

METAR: NCRG 171400Z 09003KT 9999 SCT018 BKN045 21/18 Q1016

زمن: 05:04 (15:04 UTC)

توقعات

تاريخ ووقت الإصدار 3ساعات و 54 دقيقة قبل الساعة 11:10UTC
التوقعات صالحة من17 الساعة 12 UTC إلى 18 الساعة 12 UTC
ريح 10 عقدة من الشرق
الرؤية 10 كم أو أكثر
غيوم متفرقة على ارتفاع 2200 قدم
غيوم مفككة على ارتفاع 4500 قدم

TAF: NCRG 171110Z 1712/1812 10010KT 9999 SCT022 BKN045

أرصاد الطقس والتوقعات من أكثر من 4000 مطار (تقارير الطقس للمطار METAR والتنبؤ بالطقس بالمطارTAF).

المحطات المتاحة هي النقط الصفراء والحمراء على الخريطة.

حرك المؤشر فوق النقطة لمعرفة اسم المحطة.

ثم انقر لمعرفة أرصاد وتوقعات الطقس.

لتغيير الخارطة: اضغط على الأزرار الخضراء مع رمز الصليب الأسود للتكبير. على الزر الأخضر مع شرطة للتصغير، أو على الأسهم الخضراء للخرائط المجاورة.


METAR-TAF: